createdAt,value
2018-12-17T00:00:59.686Z,970.49
2018-12-17T00:01:59.668Z,970.53
2018-12-17T00:02:59.653Z,970.57
2018-12-17T00:03:59.637Z,970.56
2018-12-17T00:04:59.623Z,970.59
2018-12-17T00:05:59.603Z,970.59
2018-12-17T00:06:59.586Z,970.60
2018-12-17T00:07:59.572Z,970.66
2018-12-17T00:08:59.556Z,970.66
2018-12-17T00:09:59.542Z,970.67
2018-12-17T00:10:59.520Z,970.71
2018-12-17T00:11:59.505Z,970.68
2018-12-17T00:12:59.490Z,970.70
2018-12-17T00:13:59.472Z,970.76
2018-12-17T00:14:59.457Z,970.77
2018-12-17T00:15:59.441Z,970.80
2018-12-17T00:16:59.423Z,970.78
2018-12-17T00:17:59.410Z,970.81
2018-12-17T00:18:59.392Z,970.83
2018-12-17T00:19:59.375Z,970.85
2018-12-17T00:20:59.360Z,970.84
2018-12-17T00:21:59.344Z,970.89
2018-12-17T00:22:59.332Z,970.91
2018-12-17T00:23:59.311Z,970.92
2018-12-17T00:24:59.293Z,970.90
2018-12-17T00:25:59.277Z,970.89
2018-12-17T00:26:59.261Z,970.90
2018-12-17T00:27:59.245Z,970.89
2018-12-17T00:28:59.227Z,970.91
2018-12-17T00:29:59.213Z,970.89
2018-12-17T00:30:59.198Z,970.96
2018-12-17T00:31:59.180Z,970.97
2018-12-17T00:32:59.166Z,970.99
2018-12-17T00:33:59.148Z,970.98
2018-12-17T00:34:59.132Z,970.97
2018-12-17T00:35:59.116Z,970.99
2018-12-17T00:36:59.099Z,970.96
2018-12-17T00:37:59.083Z,970.97
2018-12-17T00:38:59.067Z,970.96
2018-12-17T00:39:59.051Z,970.95
2018-12-17T00:40:59.034Z,970.96
2018-12-17T00:41:59.020Z,970.97
2018-12-17T00:42:59.003Z,970.99
2018-12-17T00:43:58.986Z,970.99
2018-12-17T00:44:58.970Z,970.94
2018-12-17T00:45:58.954Z,970.98
2018-12-17T00:46:58.940Z,970.99
2018-12-17T00:47:58.921Z,970.97
2018-12-17T00:48:58.905Z,970.96
2018-12-17T00:49:59.092Z,970.95
2018-12-17T00:50:58.873Z,970.98
2018-12-17T00:51:58.856Z,970.95
2018-12-17T00:52:58.845Z,970.92
2018-12-17T00:53:58.827Z,970.89
2018-12-17T00:54:58.808Z,970.93
2018-12-17T00:55:58.793Z,970.93
2018-12-17T00:56:58.776Z,970.92
2018-12-17T00:57:58.762Z,971.02
2018-12-17T00:58:58.744Z,970.99
2018-12-17T00:59:58.730Z,970.99
2018-12-17T01:00:58.715Z,970.95
2018-12-17T01:01:58.699Z,970.96
2018-12-17T01:02:58.679Z,970.95
2018-12-17T01:03:58.665Z,970.95
2018-12-17T01:04:58.647Z,970.93
2018-12-17T01:05:58.633Z,970.97
2018-12-17T01:06:58.617Z,970.93
2018-12-17T01:07:58.600Z,970.98
2018-12-17T01:08:58.587Z,971.01
2018-12-17T01:09:58.569Z,971.06
2018-12-17T01:10:58.552Z,971.09
2018-12-17T01:11:58.541Z,971.10
2018-12-17T01:12:58.520Z,971.13
2018-12-17T01:13:58.505Z,971.12
2018-12-17T01:14:58.492Z,971.10
2018-12-17T01:15:58.473Z,971.11
2018-12-17T01:16:58.462Z,971.14
2018-12-17T01:17:58.442Z,971.07
2018-12-17T01:18:58.425Z,971.10
2018-12-17T01:19:58.410Z,971.09
2018-12-17T01:20:58.395Z,971.13
2018-12-17T01:21:58.377Z,971.17
2018-12-17T01:22:58.361Z,971.13
2018-12-17T01:23:58.344Z,971.14
2018-12-17T01:24:58.329Z,971.12
2018-12-17T01:25:58.315Z,971.16
2018-12-17T01:26:58.296Z,971.14
2018-12-17T01:27:58.282Z,971.21
2018-12-17T01:28:58.266Z,971.23
2018-12-17T01:29:58.249Z,971.29
2018-12-17T01:30:58.232Z,971.25
2018-12-17T01:31:58.218Z,971.27
2018-12-17T01:32:58.201Z,971.32
2018-12-17T01:33:58.186Z,971.40
2018-12-17T01:34:58.168Z,971.37
2018-12-17T01:35:58.152Z,971.41
2018-12-17T01:36:58.214Z,971.44
2018-12-17T01:37:58.123Z,971.47
2018-12-17T01:38:58.104Z,971.47
2018-12-17T01:39:58.089Z,971.49
2018-12-17T01:40:58.073Z,971.49
2018-12-17T01:41:58.057Z,971.50
2018-12-17T01:42:58.046Z,971.50
2018-12-17T01:43:58.025Z,971.50
2018-12-17T01:44:58.010Z,971.52
2018-12-17T01:45:57.992Z,971.53
2018-12-17T01:46:57.981Z,971.54
2018-12-17T01:47:57.962Z,971.54
2018-12-17T01:48:57.946Z,971.54
2018-12-17T01:49:57.930Z,971.52
2018-12-17T01:50:57.911Z,971.50
2018-12-17T01:51:57.896Z,971.55
2018-12-17T01:52:57.880Z,971.52
2018-12-17T01:53:57.865Z,971.58
2018-12-17T01:54:57.847Z,971.58
2018-12-17T01:55:57.831Z,971.65
2018-12-17T01:56:57.816Z,971.64
2018-12-17T01:57:57.799Z,971.63
2018-12-17T01:58:57.782Z,971.62
2018-12-17T01:59:57.767Z,971.66
2018-12-17T02:00:57.751Z,971.63
2018-12-17T02:01:57.735Z,971.70
2018-12-17T02:02:57.718Z,971.67
2018-12-17T02:03:57.706Z,971.67
2018-12-17T02:04:57.687Z,971.67
2018-12-17T02:05:57.672Z,971.69
2018-12-17T02:06:57.656Z,971.67
2018-12-17T02:07:57.642Z,971.70
2018-12-17T02:08:57.621Z,971.68
2018-12-17T02:09:57.608Z,971.66
2018-12-17T02:10:57.597Z,971.67
2018-12-17T02:11:57.575Z,971.65
2018-12-17T02:12:57.581Z,971.68
2018-12-17T02:13:57.542Z,971.68
2018-12-17T02:14:57.526Z,971.64
2018-12-17T02:15:57.511Z,971.65
2018-12-17T02:16:57.494Z,971.65
2018-12-17T02:17:57.479Z,971.65
2018-12-17T02:18:57.462Z,971.62
2018-12-17T02:19:57.446Z,971.61
2018-12-17T02:20:57.432Z,971.66
2018-12-17T02:21:57.416Z,971.65
2018-12-17T02:22:57.399Z,971.66
2018-12-17T02:23:57.384Z,971.66
2018-12-17T02:24:57.364Z,971.66
2018-12-17T02:25:57.349Z,971.70
2018-12-17T02:26:57.333Z,971.70
2018-12-17T02:27:57.320Z,971.65
2018-12-17T02:28:57.302Z,971.67
2018-12-17T02:29:57.287Z,971.70
2018-12-17T02:30:57.270Z,971.66
2018-12-17T02:31:57.255Z,971.69
2018-12-17T02:32:57.239Z,971.67
2018-12-17T02:33:57.221Z,971.68
2018-12-17T02:34:57.206Z,971.68
2018-12-17T02:35:57.190Z,971.69
2018-12-17T02:36:57.183Z,971.73
2018-12-17T02:37:57.157Z,971.73
2018-12-17T02:38:57.141Z,971.76
2018-12-17T02:39:57.125Z,971.69
2018-12-17T02:40:57.110Z,971.71
2018-12-17T02:41:57.093Z,971.77
2018-12-17T02:42:57.078Z,971.82
2018-12-17T02:43:57.067Z,971.78
2018-12-17T02:44:57.044Z,971.79
2018-12-17T02:45:57.027Z,971.81
2018-12-17T02:46:57.011Z,971.83
2018-12-17T02:47:57.003Z,971.82
2018-12-17T02:48:56.991Z,971.87
2018-12-17T02:49:56.962Z,971.87
2018-12-17T02:50:56.948Z,971.86
2018-12-17T02:51:56.932Z,971.94
2018-12-17T02:52:56.918Z,971.91
2018-12-17T02:53:56.899Z,971.91
2018-12-17T02:54:56.899Z,971.92
2018-12-17T02:55:56.869Z,971.91
2018-12-17T02:56:56.850Z,971.92
2018-12-17T02:57:56.843Z,971.93
2018-12-17T02:58:56.820Z,971.95
2018-12-17T02:59:56.806Z,971.96
2018-12-17T03:00:56.791Z,971.97
2018-12-17T03:01:56.774Z,972.02
2018-12-17T03:02:56.756Z,972.02
2018-12-17T03:03:56.741Z,972.08
2018-12-17T03:04:56.723Z,972.05
2018-12-17T03:05:56.709Z,972.09
2018-12-17T03:06:56.689Z,972.14
2018-12-17T03:07:56.675Z,972.13
2018-12-17T03:08:56.658Z,972.13
2018-12-17T03:09:56.679Z,972.16
2018-12-17T03:10:56.625Z,972.19
2018-12-17T03:11:56.610Z,972.20
2018-12-17T03:12:56.593Z,972.21
2018-12-17T03:13:56.583Z,972.22
2018-12-17T03:14:56.563Z,972.21
2018-12-17T03:15:56.548Z,972.26
2018-12-17T03:16:56.532Z,972.23
2018-12-17T03:17:56.514Z,972.28
2018-12-17T03:18:56.498Z,972.31
2018-12-17T03:19:56.484Z,972.35
2018-12-17T03:20:56.470Z,972.32
2018-12-17T03:21:56.450Z,972.29
2018-12-17T03:22:56.435Z,972.28
2018-12-17T03:23:56.417Z,972.34
2018-12-17T03:24:56.401Z,972.33
2018-12-17T03:25:56.385Z,972.36
2018-12-17T03:26:56.368Z,972.35
2018-12-17T03:27:56.354Z,972.32
2018-12-17T03:28:56.337Z,972.38
2018-12-17T03:29:56.321Z,972.42
2018-12-17T03:30:56.305Z,972.47
2018-12-17T03:31:56.291Z,972.47
2018-12-17T03:32:56.276Z,972.50
2018-12-17T03:33:56.261Z,972.52
2018-12-17T03:34:56.241Z,972.56
2018-12-17T03:35:56.230Z,972.61
2018-12-17T03:36:56.208Z,972.61
2018-12-17T03:37:56.194Z,972.62
2018-12-17T03:38:56.175Z,972.61
2018-12-17T03:39:56.160Z,972.65
2018-12-17T03:40:56.146Z,972.67
2018-12-17T03:41:56.129Z,972.70
2018-12-17T03:42:56.120Z,972.69
2018-12-17T03:43:56.094Z,972.71
2018-12-17T03:44:56.081Z,972.74
2018-12-17T03:45:56.063Z,972.74
2018-12-17T03:46:56.047Z,972.72
2018-12-17T03:47:56.029Z,972.71
2018-12-17T03:48:56.015Z,972.72
2018-12-17T03:49:56.015Z,972.74
2018-12-17T03:50:55.984Z,972.74
2018-12-17T03:51:55.970Z,972.78
2018-12-17T03:52:55.950Z,972.76
2018-12-17T03:53:55.934Z,972.80
2018-12-17T03:54:55.916Z,972.81
2018-12-17T03:55:55.905Z,972.77
2018-12-17T03:56:55.891Z,972.77
2018-12-17T03:57:55.867Z,972.80
2018-12-17T03:58:59.231Z,972.81
2018-12-17T03:59:55.836Z,972.85
2018-12-17T04:00:55.821Z,972.85
2018-12-17T04:01:55.805Z,972.83
2018-12-17T04:02:55.787Z,972.88
2018-12-17T04:03:55.771Z,972.91
2018-12-17T04:04:55.756Z,972.92
2018-12-17T04:05:55.739Z,972.98
2018-12-17T04:06:55.723Z,972.91
2018-12-17T04:07:55.706Z,972.94
2018-12-17T04:08:55.690Z,972.93
2018-12-17T04:09:55.676Z,972.95
2018-12-17T04:10:55.658Z,972.96
2018-12-17T04:11:55.640Z,973.01
2018-12-17T04:12:55.626Z,973.04
2018-12-17T04:13:55.610Z,973.04
2018-12-17T04:14:55.605Z,973.04
2018-12-17T04:15:55.579Z,973.03
2018-12-17T04:16:55.560Z,973.05
2018-12-17T04:17:55.546Z,973.07
2018-12-17T04:18:55.527Z,973.07
2018-12-17T04:19:55.513Z,973.10
2018-12-17T04:20:55.497Z,973.10
2018-12-17T04:21:55.479Z,973.14
2018-12-17T04:22:55.462Z,973.17
2018-12-17T04:23:55.447Z,973.14
2018-12-17T04:24:55.432Z,973.16
2018-12-17T04:25:55.413Z,973.18
2018-12-17T04:26:55.396Z,973.19
2018-12-17T04:27:55.380Z,973.16
2018-12-17T04:28:55.365Z,973.21
2018-12-17T04:29:55.350Z,973.22
2018-12-17T04:30:55.333Z,973.18
2018-12-17T04:31:55.316Z,973.19
2018-12-17T04:32:55.364Z,973.21
2018-12-17T04:33:55.285Z,973.22
2018-12-17T04:34:55.269Z,973.26
2018-12-17T04:35:55.251Z,973.26
2018-12-17T04:36:55.238Z,973.30
2018-12-17T04:37:55.224Z,973.30
2018-12-17T04:38:55.204Z,973.30
2018-12-17T04:39:55.195Z,973.32
2018-12-17T04:40:55.172Z,973.39
2018-12-17T04:41:55.157Z,973.38
2018-12-17T04:42:55.142Z,973.39
2018-12-17T04:43:55.123Z,973.42
2018-12-17T04:44:55.108Z,973.42
2018-12-17T04:45:55.090Z,973.44
2018-12-17T04:46:55.101Z,973.45
2018-12-17T04:47:55.057Z,973.44
2018-12-17T04:48:55.040Z,973.44
2018-12-17T04:49:55.025Z,973.47
2018-12-17T04:50:55.010Z,973.46
2018-12-17T04:51:54.992Z,973.45
2018-12-17T04:52:54.975Z,973.46
2018-12-17T04:53:54.961Z,973.48
2018-12-17T04:54:54.945Z,973.51
2018-12-17T04:55:54.928Z,973.56
2018-12-17T04:56:54.916Z,973.54
2018-12-17T04:57:54.898Z,973.52
2018-12-17T04:58:54.882Z,973.53
2018-12-17T04:59:54.865Z,973.52
2018-12-17T05:00:54.849Z,973.55
2018-12-17T05:01:54.836Z,973.61
2018-12-17T05:02:54.816Z,973.61
2018-12-17T05:03:54.801Z,973.64
2018-12-17T05:04:54.784Z,973.65
2018-12-17T05:05:54.768Z,973.69
2018-12-17T05:06:54.753Z,973.72
2018-12-17T05:07:54.736Z,973.70
2018-12-17T05:08:54.720Z,973.74
2018-12-17T05:09:54.706Z,973.72
2018-12-17T05:10:54.689Z,973.77
2018-12-17T05:11:54.674Z,973.78
2018-12-17T05:12:54.655Z,973.75
2018-12-17T05:13:54.640Z,973.76
2018-12-17T05:14:54.623Z,973.77
2018-12-17T05:15:54.607Z,973.79
2018-12-17T05:16:54.593Z,973.79
2018-12-17T05:17:54.576Z,973.80
2018-12-17T05:18:54.560Z,973.81
2018-12-17T05:19:54.547Z,973.82
2018-12-17T05:20:54.526Z,973.87
2018-12-17T05:21:54.511Z,973.89
2018-12-17T05:22:54.493Z,973.91
2018-12-17T05:23:54.478Z,973.94
2018-12-17T05:24:54.465Z,973.98
2018-12-17T05:25:54.450Z,974.04
2018-12-17T05:26:54.431Z,974.01
2018-12-17T05:27:54.413Z,974.03
2018-12-17T05:28:54.398Z,974.06
2018-12-17T05:29:54.382Z,974.06
2018-12-17T05:30:54.364Z,974.07
2018-12-17T05:31:54.351Z,974.03
2018-12-17T05:32:54.340Z,974.04
2018-12-17T05:33:54.317Z,974.06
2018-12-17T05:34:54.300Z,974.05
2018-12-17T05:35:54.285Z,974.04
2018-12-17T05:36:54.269Z,974.13
2018-12-17T05:37:54.253Z,974.11
2018-12-17T05:38:54.237Z,974.12
2018-12-17T05:39:54.225Z,974.14
2018-12-17T05:40:54.207Z,974.18
2018-12-17T05:41:54.189Z,974.20
2018-12-17T05:42:54.174Z,974.20
2018-12-17T05:43:54.159Z,974.27
2018-12-17T05:44:54.140Z,974.28
2018-12-17T05:45:54.125Z,974.34
2018-12-17T05:46:54.114Z,974.36
2018-12-17T05:47:54.094Z,974.43
2018-12-17T05:48:54.083Z,974.42
2018-12-17T05:49:54.064Z,974.50
2018-12-17T05:50:54.053Z,974.52
2018-12-17T05:51:54.031Z,974.55
2018-12-17T05:52:54.015Z,974.58
2018-12-17T05:53:54.000Z,974.58
2018-12-17T05:54:53.983Z,974.60
2018-12-17T05:55:53.967Z,974.63
2018-12-17T05:56:53.950Z,974.63
2018-12-17T05:57:53.934Z,974.70
2018-12-17T05:58:53.917Z,974.65
2018-12-17T05:59:53.901Z,974.70
2018-12-17T06:00:53.886Z,974.69
2018-12-17T06:01:53.870Z,974.74
2018-12-17T06:02:53.854Z,974.78
2018-12-17T06:03:53.839Z,974.80
2018-12-17T06:04:53.826Z,974.80
2018-12-17T06:05:53.808Z,974.79
2018-12-17T06:06:53.789Z,974.82
2018-12-17T06:07:53.775Z,974.82
2018-12-17T06:08:53.759Z,974.79
2018-12-17T06:09:53.742Z,974.82
2018-12-17T06:10:53.725Z,974.88
2018-12-17T06:11:53.710Z,974.82
2018-12-17T06:12:53.694Z,974.88
2018-12-17T06:13:53.679Z,974.85
2018-12-17T06:14:53.666Z,974.93
2018-12-17T06:15:53.646Z,974.89
2018-12-17T06:16:53.631Z,974.88
2018-12-17T06:17:53.616Z,974.93
2018-12-17T06:18:53.598Z,974.95
2018-12-17T06:19:53.584Z,974.95
2018-12-17T06:20:53.568Z,974.94
2018-12-17T06:21:53.551Z,974.97
2018-12-17T06:22:53.535Z,975.00
2018-12-17T06:23:53.518Z,974.96
2018-12-17T06:24:53.501Z,975.01
2018-12-17T06:25:53.486Z,974.97
2018-12-17T06:26:53.468Z,975.02
2018-12-17T06:27:53.455Z,975.05
2018-12-17T06:28:53.437Z,975.09
2018-12-17T06:29:53.424Z,975.12
2018-12-17T06:30:53.405Z,975.11
2018-12-17T06:31:53.391Z,975.17
2018-12-17T06:32:53.375Z,975.20
2018-12-17T06:33:53.360Z,975.19
2018-12-17T06:34:53.343Z,975.17
2018-12-17T06:35:53.326Z,975.19
2018-12-17T06:36:53.313Z,975.24
2018-12-17T06:37:53.297Z,975.24
2018-12-17T06:38:53.277Z,975.28
2018-12-17T06:39:53.262Z,975.35
2018-12-17T06:40:53.246Z,975.38
2018-12-17T06:41:53.231Z,975.42
2018-12-17T06:42:53.214Z,975.44
2018-12-17T06:43:53.198Z,975.40
2018-12-17T06:44:53.181Z,975.44
2018-12-17T06:45:53.167Z,975.50
2018-12-17T06:46:53.150Z,975.46
2018-12-17T06:47:53.133Z,975.47
2018-12-17T06:48:53.119Z,975.46
2018-12-17T06:49:53.110Z,975.47
2018-12-17T06:50:53.086Z,975.41
2018-12-17T06:51:53.072Z,975.43
2018-12-17T06:52:53.053Z,975.42
2018-12-17T06:53:53.038Z,975.44
2018-12-17T06:54:54.934Z,975.44
2018-12-17T06:55:53.005Z,975.47
2018-12-17T06:56:52.989Z,975.51
2018-12-17T06:57:52.974Z,975.49
2018-12-17T06:58:52.958Z,975.55
2018-12-17T06:59:52.944Z,975.55
2018-12-17T07:00:52.928Z,975.58
2018-12-17T07:01:52.911Z,975.61
2018-12-17T07:02:52.894Z,975.60
2018-12-17T07:03:52.883Z,975.64
2018-12-17T07:04:52.865Z,975.61
2018-12-17T07:05:52.848Z,975.65
2018-12-17T07:06:52.829Z,975.66
2018-12-17T07:07:52.813Z,975.67
2018-12-17T07:08:52.801Z,975.66
2018-12-17T07:09:52.783Z,975.67
2018-12-17T07:10:52.766Z,975.72
2018-12-17T07:11:52.751Z,975.74
2018-12-17T07:12:52.736Z,975.76
2018-12-17T07:13:52.718Z,975.77
2018-12-17T07:14:52.701Z,975.82
2018-12-17T07:15:52.686Z,975.81
2018-12-17T07:16:52.672Z,975.81
2018-12-17T07:17:52.656Z,975.83
2018-12-17T07:18:52.642Z,975.86
2018-12-17T07:19:54.148Z,975.86
2018-12-17T07:20:52.607Z,975.90
2018-12-17T07:21:52.598Z,975.95
2018-12-17T07:22:52.575Z,975.96
2018-12-17T07:23:52.557Z,976.00
2018-12-17T07:24:52.544Z,975.99
2018-12-17T07:25:52.526Z,976.02
2018-12-17T07:26:52.509Z,976.06
2018-12-17T07:27:52.494Z,976.12
2018-12-17T07:28:52.484Z,976.09
2018-12-17T07:29:52.465Z,976.11
2018-12-17T07:30:52.447Z,976.14
2018-12-17T07:31:52.430Z,976.16
2018-12-17T07:32:52.415Z,976.15
2018-12-17T07:33:52.401Z,976.15
2018-12-17T07:34:52.382Z,976.13
2018-12-17T07:35:52.367Z,976.16
2018-12-17T07:36:52.354Z,976.22
2018-12-17T07:37:52.336Z,976.24
2018-12-17T07:38:52.320Z,976.25
2018-12-17T07:39:52.305Z,976.27
2018-12-17T07:40:52.290Z,976.26
2018-12-17T07:41:52.274Z,976.22
2018-12-17T07:42:52.259Z,976.26
2018-12-17T07:43:52.241Z,976.28
2018-12-17T07:44:52.226Z,976.30
2018-12-17T07:45:52.210Z,976.34
2018-12-17T07:46:52.194Z,976.33
2018-12-17T07:47:52.179Z,976.38
2018-12-17T07:48:52.161Z,976.47
2018-12-17T07:49:52.146Z,976.48
2018-12-17T07:50:52.131Z,976.46
2018-12-17T07:51:52.116Z,976.50
2018-12-17T07:52:52.098Z,976.46
2018-12-17T07:53:52.085Z,976.52
2018-12-17T07:54:52.066Z,976.57
2018-12-17T07:55:52.052Z,976.61
2018-12-17T07:56:52.037Z,976.64
2018-12-17T07:57:52.025Z,976.59
2018-12-17T07:58:52.005Z,976.62
2018-12-17T07:59:56.690Z,976.63
2018-12-17T08:00:51.974Z,976.67
2018-12-17T08:01:51.958Z,976.68
2018-12-17T08:02:51.940Z,976.69
2018-12-17T08:03:51.928Z,976.71
2018-12-17T08:04:51.912Z,976.74
2018-12-17T08:05:51.897Z,976.76
2018-12-17T08:06:51.880Z,976.75
2018-12-17T08:07:51.864Z,976.79
2018-12-17T08:08:51.848Z,976.79
2018-12-17T08:09:51.832Z,976.84
2018-12-17T08:10:51.816Z,976.83
2018-12-17T08:11:51.801Z,976.87
2018-12-17T08:12:51.785Z,976.86
2018-12-17T08:13:51.775Z,976.84
2018-12-17T08:14:51.754Z,976.89
2018-12-17T08:15:51.738Z,976.94
2018-12-17T08:16:51.723Z,976.95
2018-12-17T08:17:51.708Z,977.02
2018-12-17T08:18:51.691Z,977.02
2018-12-17T08:19:51.678Z,977.04
2018-12-17T08:20:51.663Z,977.04
2018-12-17T08:21:51.646Z,977.07
2018-12-17T08:22:51.629Z,977.07
2018-12-17T08:23:51.615Z,977.05
2018-12-17T08:24:51.599Z,977.08
2018-12-17T08:25:51.591Z,977.14
2018-12-17T08:26:51.570Z,977.14
2018-12-17T08:27:51.553Z,977.19
2018-12-17T08:28:51.539Z,977.21
2018-12-17T08:29:51.521Z,977.22
2018-12-17T08:30:51.504Z,977.27
2018-12-17T08:31:51.489Z,977.31
2018-12-17T08:32:51.474Z,977.31
2018-12-17T08:33:51.460Z,977.29
2018-12-17T08:34:51.444Z,977.34
2018-12-17T08:35:51.428Z,977.33
2018-12-17T08:36:51.413Z,977.36
2018-12-17T08:37:51.399Z,977.36
2018-12-17T08:38:51.380Z,977.36
2018-12-17T08:39:51.366Z,977.40
2018-12-17T08:40:51.349Z,977.45
2018-12-17T08:41:51.334Z,977.41
2018-12-17T08:42:51.318Z,977.48
2018-12-17T08:43:51.301Z,977.50
2018-12-17T08:44:51.284Z,977.50
2018-12-17T08:45:51.272Z,977.50
2018-12-17T08:46:51.258Z,977.53
2018-12-17T08:47:51.242Z,977.54
2018-12-17T08:48:51.230Z,977.58
2018-12-17T08:49:51.212Z,977.56
2018-12-17T08:50:51.194Z,977.59
2018-12-17T08:51:51.178Z,977.60
2018-12-17T08:52:51.164Z,977.67
2018-12-17T08:53:51.149Z,977.71
2018-12-17T08:54:51.133Z,977.71
2018-12-17T08:55:51.117Z,977.69
2018-12-17T08:56:51.101Z,977.71
2018-12-17T08:57:51.086Z,977.73
2018-12-17T08:58:51.072Z,977.76
2018-12-17T08:59:51.055Z,977.78
2018-12-17T09:00:51.043Z,977.81
2018-12-17T09:01:51.025Z,977.84
2018-12-17T09:02:51.010Z,977.86
2018-12-17T09:03:50.992Z,977.90
2018-12-17T09:04:50.976Z,977.92
2018-12-17T09:05:50.962Z,977.94
2018-12-17T09:06:50.946Z,977.97
2018-12-17T09:07:50.932Z,977.97
2018-12-17T09:08:50.916Z,977.98
2018-12-17T09:09:50.900Z,978.01
2018-12-17T09:10:50.885Z,978.04
2018-12-17T09:11:50.868Z,978.05
2018-12-17T09:12:50.855Z,978.11
2018-12-17T09:13:50.838Z,978.09
2018-12-17T09:14:50.824Z,978.09
2018-12-17T09:15:50.806Z,978.09
2018-12-17T09:16:50.793Z,978.09
2018-12-17T09:17:50.779Z,978.08
2018-12-17T09:18:50.763Z,978.13
2018-12-17T09:19:50.745Z,978.19
2018-12-17T09:20:50.730Z,978.24
2018-12-17T09:21:50.715Z,978.25
2018-12-17T09:22:50.699Z,978.28
2018-12-17T09:23:50.684Z,978.28
2018-12-17T09:24:50.671Z,978.34
2018-12-17T09:25:50.653Z,978.34
2018-12-17T09:26:50.637Z,978.37
2018-12-17T09:27:50.626Z,978.38
2018-12-17T09:28:50.606Z,978.39
2018-12-17T09:29:50.592Z,978.36
2018-12-17T09:30:50.577Z,978.39
2018-12-17T09:31:50.564Z,978.34
2018-12-17T09:32:50.545Z,978.33
2018-12-17T09:33:50.528Z,978.31
2018-12-17T09:34:50.514Z,978.34
2018-12-17T09:35:50.501Z,978.39
2018-12-17T09:36:50.483Z,978.38
2018-12-17T09:37:50.469Z,978.42
2018-12-17T09:38:50.451Z,978.39
2018-12-17T09:39:50.439Z,978.42
2018-12-17T09:40:50.422Z,978.45
2018-12-17T09:41:50.408Z,978.47
2018-12-17T09:42:50.392Z,978.51
2018-12-17T09:43:50.377Z,978.50
2018-12-17T09:44:50.363Z,978.46
2018-12-17T09:45:50.347Z,978.45
2018-12-17T09:46:50.331Z,978.47
2018-12-17T09:47:50.316Z,978.41
2018-12-17T09:48:50.301Z,978.43
2018-12-17T09:49:50.286Z,978.43
2018-12-17T09:50:50.271Z,978.48
2018-12-17T09:51:50.259Z,978.48
2018-12-17T09:52:50.242Z,978.52
2018-12-17T09:53:50.226Z,978.52
2018-12-17T09:54:50.208Z,978.59
2018-12-17T09:55:50.195Z,978.57
2018-12-17T09:56:50.179Z,978.55
2018-12-17T09:57:50.165Z,978.58
2018-12-17T09:58:50.148Z,978.57
2018-12-17T09:59:50.134Z,978.60
2018-12-17T10:00:50.120Z,978.52
2018-12-17T10:01:50.103Z,978.51
2018-12-17T10:02:50.089Z,978.50
2018-12-17T10:03:50.073Z,978.53
2018-12-17T10:04:50.070Z,978.55
2018-12-17T10:05:50.050Z,978.56
2018-12-17T10:06:50.029Z,978.56
2018-12-17T10:07:50.013Z,978.57
2018-12-17T10:08:50.000Z,978.58
2018-12-17T10:09:50.054Z,978.61
2018-12-17T10:10:49.974Z,978.60
2018-12-17T10:11:49.954Z,978.59
2018-12-17T10:12:49.938Z,978.59
2018-12-17T10:13:49.923Z,978.64
2018-12-17T10:14:49.913Z,978.65
2018-12-17T10:15:49.895Z,978.67
2018-12-17T10:16:49.885Z,978.71
2018-12-17T10:17:49.864Z,978.66
2018-12-17T10:18:49.849Z,978.70
2018-12-17T10:19:49.834Z,978.68
2018-12-17T10:20:49.820Z,978.71
2018-12-17T10:21:49.804Z,978.67
2018-12-17T10:22:49.792Z,978.64
2018-12-17T10:23:49.775Z,978.57
2018-12-17T10:24:49.761Z,978.55
2018-12-17T10:25:49.743Z,978.53
2018-12-17T10:26:49.730Z,978.54
2018-12-17T10:27:49.715Z,978.50
2018-12-17T10:28:49.700Z,978.53
2018-12-17T10:29:49.683Z,978.57
2018-12-17T10:30:49.670Z,978.58
2018-12-17T10:31:49.655Z,978.58
2018-12-17T10:32:49.643Z,978.56
2018-12-17T10:33:49.625Z,978.53
2018-12-17T10:34:49.614Z,978.52
2018-12-17T10:35:49.597Z,978.49
2018-12-17T10:36:49.580Z,978.51
2018-12-17T10:37:49.568Z,978.45
2018-12-17T10:38:49.553Z,978.48
2018-12-17T10:39:49.541Z,978.47
2018-12-17T10:40:49.520Z,978.38
2018-12-17T10:41:49.576Z,978.40
2018-12-17T10:42:49.495Z,978.35
2018-12-17T10:43:49.478Z,978.34
2018-12-17T10:44:49.467Z,978.43
2018-12-17T10:45:49.448Z,978.41
2018-12-17T10:46:49.435Z,978.42
2018-12-17T10:47:49.418Z,978.39
2018-12-17T10:48:49.407Z,978.40
2018-12-17T10:49:49.395Z,978.47
2018-12-17T10:50:49.375Z,978.46
2018-12-17T10:51:49.361Z,978.51
2018-12-17T10:52:49.346Z,978.59
2018-12-17T10:53:49.332Z,978.63
2018-12-17T10:54:49.315Z,978.64
2018-12-17T10:55:49.302Z,978.66
2018-12-17T10:56:49.287Z,978.70
2018-12-17T10:57:49.271Z,978.72
2018-12-17T10:58:49.256Z,978.72
2018-12-17T10:59:49.243Z,978.77
2018-12-17T11:00:49.229Z,978.80
2018-12-17T11:01:49.215Z,978.80
2018-12-17T11:02:49.200Z,978.73
2018-12-17T11:03:49.183Z,978.79
2018-12-17T11:04:49.171Z,978.72
2018-12-17T11:05:49.156Z,978.74
2018-12-17T11:06:49.140Z,978.76
2018-12-17T11:07:49.125Z,978.81
2018-12-17T11:08:49.112Z,978.80
2018-12-17T11:09:49.097Z,978.81
2018-12-17T11:10:49.080Z,978.79
2018-12-17T11:11:49.066Z,978.80
2018-12-17T11:12:49.053Z,978.79
2018-12-17T11:13:49.037Z,978.78
2018-12-17T11:14:49.023Z,978.74
2018-12-17T11:15:49.009Z,978.76
2018-12-17T11:16:48.997Z,978.79
2018-12-17T11:17:48.980Z,978.74
2018-12-17T11:18:48.964Z,978.75
2018-12-17T11:19:48.953Z,978.75
2018-12-17T11:20:48.934Z,978.77
2018-12-17T11:21:48.923Z,978.79
2018-12-17T11:22:48.907Z,978.80
2018-12-17T11:23:48.890Z,978.79
2018-12-17T11:24:48.876Z,978.80
2018-12-17T11:25:48.862Z,978.74
2018-12-17T11:26:48.845Z,978.70
2018-12-17T11:27:48.831Z,978.73
2018-12-17T11:28:48.815Z,978.70
2018-12-17T11:29:48.803Z,978.70
2018-12-17T11:30:48.786Z,978.76
2018-12-17T11:31:48.771Z,978.72
2018-12-17T11:32:48.759Z,978.78
2018-12-17T11:33:48.745Z,978.76
2018-12-17T11:34:48.732Z,978.77
2018-12-17T11:35:48.717Z,978.77
2018-12-17T11:36:48.703Z,978.75
2018-12-17T11:37:48.687Z,978.73
2018-12-17T11:38:48.672Z,978.72
2018-12-17T11:39:48.731Z,978.76
2018-12-17T11:40:48.646Z,978.81
2018-12-17T11:41:48.629Z,978.76
2018-12-17T11:42:48.617Z,978.75
2018-12-17T11:43:48.602Z,978.75
2018-12-17T11:44:48.584Z,978.72
2018-12-17T11:45:48.570Z,978.72
2018-12-17T11:46:48.555Z,978.74
2018-12-17T11:47:48.543Z,978.75
2018-12-17T11:48:48.528Z,978.77
2018-12-17T11:49:48.514Z,978.75
2018-12-17T11:50:48.496Z,978.78
2018-12-17T11:51:48.484Z,978.78
2018-12-17T11:52:48.467Z,978.77
2018-12-17T11:53:48.453Z,978.80
2018-12-17T11:54:48.437Z,978.81
2018-12-17T11:55:48.423Z,978.78
2018-12-17T11:56:48.409Z,978.80
2018-12-17T11:57:48.475Z,978.79
2018-12-17T11:58:48.379Z,978.79
2018-12-17T11:59:48.365Z,978.76
2018-12-17T12:00:53.698Z,978.77
2018-12-17T12:01:48.337Z,978.74
2018-12-17T12:02:48.320Z,978.78
2018-12-17T12:03:48.305Z,978.74
2018-12-17T12:04:48.293Z,978.68
2018-12-17T12:05:48.278Z,978.66
2018-12-17T12:06:48.263Z,978.67
2018-12-17T12:07:48.246Z,978.67
2018-12-17T12:08:48.232Z,978.66
2018-12-17T12:09:48.217Z,978.64
2018-12-17T12:10:48.206Z,978.65
2018-12-17T12:11:48.189Z,978.70
2018-12-17T12:12:48.179Z,978.69
2018-12-17T12:13:48.158Z,978.68
2018-12-17T12:14:48.146Z,978.73
2018-12-17T12:15:48.132Z,978.72
2018-12-17T12:16:48.116Z,978.75
2018-12-17T12:17:48.100Z,978.73
2018-12-17T12:18:48.085Z,978.75
2018-12-17T12:19:48.071Z,978.73
2018-12-17T12:20:48.056Z,978.74
2018-12-17T12:21:48.045Z,978.73
2018-12-17T12:22:48.028Z,978.77
2018-12-17T12:23:48.011Z,978.76
2018-12-17T12:24:47.999Z,978.77
2018-12-17T12:25:47.984Z,978.74
2018-12-17T12:26:47.969Z,978.79
2018-12-17T12:27:47.955Z,978.77
2018-12-17T12:28:47.940Z,978.81